Terminal Aerodrome Forecast
Issued by NWS

Home | Current Version | Previous Version | Text Only | Print | Product List | Glossary Off
Versions: 1 2 3 4 5 6 7 8 9 10 11 12 13 14 15 16 17

000
FTUS43 KMPX 212300
TAFRWF
TAF
KRWF 212334Z 2200/2224 14011KT P6SM SCT250
     FM221200 15014G22KT P6SM VCSH SCT015 BKN050
     FM221600 16018G24KT P6SM SCT020 BKN040
     FM222200 17016KT P6SM SCT015 OVC035 PROB30 2222/2224 -SHRA=

USA.gov is the U.S. government's official web portal to all federal, state and local government web resources and services.